Terminal Aerodrome Forecast
Issued by NWS

Home | Current Version | Previous Version | Text Only | Print | Product List | Glossary On
Versions: 1 2 3 4 5 6 7 8 9 10 11 12 13 14
262
FTUS43 KOAX 272320
TAFBFF
TAF
KBFF 272320Z 2800/2824 09010KT P6SM OVC070
     FM280800 11010KT 6SM -RA SCT007 OVC015
     FM281200 11009KT 1SM -RA SCT003 OVC007
     FM281800 10012KT 3/4SM -SN OVC003=

USA.gov is the U.S. government's official web portal to all federal, state and local government web resources and services.